VOI617 MMMX-MMGL
Flight info
| Callsign | VOI617 |
|---|---|
| Flight time | 1h 2m |
| Altitude | 36000 |
| Route | OVAGO3B OVAGO UT123 IGSON IGSON1B |
| Aircraft | A20N/M-SDE2E3FGHIRWXY/LB1 |
Departure
| Time | 2026-05-05 23:45 |
|---|---|
| Airport | Mexico City Benito Juárez International Airport (MMMX) |
Arrival
| Time | 2026-05-06 00:48 |
|---|---|
| Airport | Guadalajara International Airport (MMGL) |
| Time | Latitude | Longitude | Altitude | Speed | Heading |
|---|---|---|---|---|---|
| 2026-05-05 22:38 | 19.43389 | -99.08348 | 7384 ft | 0 kts | 331° |
| 2026-05-05 23:27 | 19.43380 | -99.08343 | 7384 ft | 2 kts | 331° |
| 2026-05-05 23:27 | 19.43366 | -99.08335 | 7384 ft | 2 kts | 332° |
| 2026-05-05 23:28 | 19.43353 | -99.08327 | 7384 ft | 2 kts | 331° |
| 2026-05-05 23:28 | 19.43340 | -99.08319 | 7384 ft | 2 kts | 331° |
| 2026-05-05 23:28 | 19.43326 | -99.08312 | 7384 ft | 2 kts | 343° |
| 2026-05-05 23:28 | 19.43311 | -99.08312 | 7384 ft | 2 kts | 20° |
| 2026-05-05 23:29 | 19.43299 | -99.08320 | 7384 ft | 1 kts | 52° |
| 2026-05-05 23:29 | 19.43296 | -99.08326 | 7384 ft | 1 kts | 60° |
| 2026-05-05 23:29 | 19.43295 | -99.08328 | 7384 ft | 0 kts | 58° |
| 2026-05-05 23:33 | 19.43296 | -99.08326 | 7383 ft | 1 kts | 58° |
| 2026-05-05 23:34 | 19.43300 | -99.08319 | 7383 ft | 2 kts | 57° |
| 2026-05-05 23:34 | 19.43307 | -99.08307 | 7383 ft | 2 kts | 57° |
| 2026-05-05 23:34 | 19.43318 | -99.08290 | 7383 ft | 3 kts | 56° |
| 2026-05-05 23:34 | 19.43332 | -99.08268 | 7383 ft | 4 kts | 56° |
| 2026-05-05 23:35 | 19.43349 | -99.08241 | 7383 ft | 5 kts | 56° |
| 2026-05-05 23:35 | 19.43369 | -99.08210 | 7383 ft | 5 kts | 58° |
| 2026-05-05 23:35 | 19.43389 | -99.08174 | 7383 ft | 6 kts | 61° |
| 2026-05-05 23:35 | 19.43410 | -99.08132 | 7382 ft | 7 kts | 64° |
| 2026-05-05 23:36 | 19.43430 | -99.08085 | 7382 ft | 7 kts | 66° |
| 2026-05-05 23:36 | 19.43456 | -99.08035 | 7382 ft | 8 kts | 57° |
| 2026-05-05 23:36 | 19.43490 | -99.07985 | 7382 ft | 9 kts | 53° |
| 2026-05-05 23:36 | 19.43517 | -99.07946 | 7382 ft | 9 kts | 56° |
| 2026-05-05 23:37 | 19.43548 | -99.07894 | 7381 ft | 12 kts | 59° |
| 2026-05-05 23:37 | 19.43598 | -99.07803 | 7381 ft | 16 kts | 60° |
| 2026-05-05 23:37 | 19.43655 | -99.07693 | 7380 ft | 20 kts | 61° |
| 2026-05-05 23:37 | 19.43729 | -99.07559 | 7380 ft | 23 kts | 58° |
| 2026-05-05 23:38 | 19.43817 | -99.07405 | 7379 ft | 26 kts | 60° |
| 2026-05-05 23:38 | 19.43914 | -99.07234 | 7379 ft | 28 kts | 59° |
| 2026-05-05 23:38 | 19.44019 | -99.07049 | 7378 ft | 30 kts | 59° |
| 2026-05-05 23:38 | 19.44121 | -99.06863 | 7378 ft | 28 kts | 60° |
| 2026-05-05 23:39 | 19.44217 | -99.06690 | 7377 ft | 26 kts | 59° |
| 2026-05-05 23:39 | 19.44309 | -99.06530 | 7376 ft | 25 kts | 61° |
| 2026-05-05 23:39 | 19.44380 | -99.06406 | 7376 ft | 13 kts | 57° |
| 2026-05-05 23:39 | 19.44401 | -99.06365 | 7376 ft | 0 kts | 75° |
| 2026-05-05 23:40 | 19.44409 | -99.06334 | 7376 ft | 12 kts | 74° |
| 2026-05-05 23:40 | 19.44396 | -99.06219 | 7375 ft | 21 kts | 112° |
| 2026-05-05 23:40 | 19.44340 | -99.06072 | 7375 ft | 21 kts | 111° |
| 2026-05-05 23:40 | 19.44283 | -99.05924 | 7375 ft | 24 kts | 112° |
| 2026-05-05 23:41 | 19.44215 | -99.05751 | 7375 ft | 22 kts | 112° |
| 2026-05-05 23:41 | 19.44183 | -99.05635 | 7374 ft | 16 kts | 86° |
| 2026-05-05 23:41 | 19.44223 | -99.05527 | 7374 ft | 16 kts | 58° |
| 2026-05-05 23:41 | 19.44282 | -99.05423 | 7374 ft | 17 kts | 60° |
| 2026-05-05 23:42 | 19.44334 | -99.05329 | 7373 ft | 0 kts | 59° |
| 2026-05-05 23:43 | 19.44335 | -99.05327 | 7373 ft | 1 kts | 59° |
| 2026-05-05 23:43 | 19.44347 | -99.05306 | 7373 ft | 7 kts | 57° |
| 2026-05-05 23:43 | 19.44393 | -99.05261 | 7373 ft | 10 kts | 18° |
| 2026-05-05 23:43 | 19.44457 | -99.05277 | 7373 ft | 10 kts | 326° |
| 2026-05-05 23:44 | 19.44508 | -99.05329 | 7373 ft | 10 kts | 304° |
| 2026-05-05 23:44 | 19.44496 | -99.05388 | 7373 ft | 0 kts | 237° |
| 2026-05-05 23:44 | 19.44450 | -99.05469 | 7373 ft | 43 kts | 240° |
| 2026-05-05 23:45 | 19.44174 | -99.05959 | 7375 ft | 109 kts | 240° |
| 2026-05-05 23:45 | 19.43685 | -99.06831 | 7378 ft | 165 kts | 239° |
| 2026-05-05 23:45 | 19.43045 | -99.07991 | 7674 ft | 186 kts | 244° |
| 2026-05-05 23:45 | 19.42433 | -99.09179 | 8286 ft | 187 kts | 243° |
| 2026-05-05 23:46 | 19.41805 | -99.10378 | 8910 ft | 189 kts | 242° |
| 2026-05-05 23:46 | 19.41150 | -99.11595 | 9410 ft | 194 kts | 241° |
| 2026-05-05 23:46 | 19.40459 | -99.12873 | 9663 ft | 207 kts | 241° |
| 2026-05-05 23:46 | 19.39801 | -99.14087 | 9893 ft | 219 kts | 241° |
| 2026-05-05 23:47 | 19.39018 | -99.15531 | 10148 ft | 233 kts | 241° |
| 2026-05-05 23:47 | 19.38167 | -99.17101 | 10312 ft | 254 kts | 241° |
| 2026-05-05 23:47 | 19.37584 | -99.18181 | 10576 ft | 261 kts | 243° |
| 2026-05-05 23:47 | 19.37034 | -99.19992 | 11082 ft | 264 kts | 270° |
| 2026-05-05 23:48 | 19.37395 | -99.21863 | 11660 ft | 263 kts | 298° |
| 2026-05-05 23:48 | 19.38538 | -99.23350 | 12225 ft | 265 kts | 321° |
| 2026-05-05 23:48 | 19.40000 | -99.24542 | 12783 ft | 268 kts | 323° |
| 2026-05-05 23:48 | 19.41486 | -99.25751 | 13342 ft | 271 kts | 323° |
| 2026-05-05 23:49 | 19.42996 | -99.26994 | 13909 ft | 274 kts | 323° |
| 2026-05-05 23:49 | 19.44501 | -99.28246 | 14455 ft | 278 kts | 323° |
| 2026-05-05 23:49 | 19.46025 | -99.29520 | 15012 ft | 282 kts | 321° |
| 2026-05-05 23:49 | 19.47315 | -99.31079 | 15516 ft | 288 kts | 296° |
| 2026-05-05 23:50 | 19.47815 | -99.33125 | 16035 ft | 293 kts | 269° |
| 2026-05-05 23:50 | 19.47420 | -99.35272 | 16350 ft | 306 kts | 248° |
| 2026-05-05 23:50 | 19.46593 | -99.37401 | 16637 ft | 321 kts | 247° |
| 2026-05-05 23:50 | 19.45728 | -99.39643 | 17011 ft | 333 kts | 247° |
| 2026-05-05 23:51 | 19.44874 | -99.41934 | 17539 ft | 338 kts | 248° |
| 2026-05-05 23:51 | 19.44024 | -99.44262 | 18090 ft | 342 kts | 248° |
| 2026-05-05 23:51 | 19.43174 | -99.46615 | 18641 ft | 345 kts | 248° |
| 2026-05-05 23:51 | 19.42315 | -99.48993 | 19179 ft | 348 kts | 248° |
| 2026-05-05 23:52 | 19.41451 | -99.51386 | 19710 ft | 351 kts | 248° |
| 2026-05-05 23:52 | 19.40578 | -99.53805 | 20262 ft | 353 kts | 248° |
| 2026-05-05 23:52 | 19.39690 | -99.56260 | 20811 ft | 356 kts | 248° |
| 2026-05-05 23:52 | 19.38804 | -99.58710 | 21346 ft | 359 kts | 248° |
| 2026-05-05 23:53 | 19.37909 | -99.61172 | 21876 ft | 361 kts | 248° |
| 2026-05-05 23:53 | 19.36983 | -99.63669 | 22157 ft | 371 kts | 248° |
| 2026-05-05 23:53 | 19.36015 | -99.66260 | 22389 ft | 382 kts | 246° |
| 2026-05-05 23:53 | 19.35031 | -99.68905 | 22738 ft | 388 kts | 246° |
| 2026-05-05 23:54 | 19.34034 | -99.71570 | 23233 ft | 389 kts | 246° |
| 2026-05-05 23:54 | 19.33027 | -99.74273 | 23761 ft | 391 kts | 247° |
| 2026-05-05 23:54 | 19.32027 | -99.76961 | 24297 ft | 392 kts | 246° |
| 2026-05-05 23:54 | 19.31023 | -99.79655 | 24808 ft | 393 kts | 246° |
| 2026-05-05 23:55 | 19.30011 | -99.82368 | 25305 ft | 396 kts | 246° |
| 2026-05-05 23:55 | 19.29240 | -99.84428 | 25700 ft | 397 kts | 246° |
| 2026-05-05 23:55 | 19.28221 | -99.87152 | 26217 ft | 399 kts | 246° |
| 2026-05-05 23:55 | 19.27198 | -99.89884 | 26713 ft | 401 kts | 246° |
| 2026-05-05 23:56 | 19.26164 | -99.92649 | 27201 ft | 403 kts | 246° |
| 2026-05-05 23:56 | 19.25127 | -99.95418 | 27675 ft | 405 kts | 246° |
| 2026-05-05 23:56 | 19.24086 | -99.98198 | 28136 ft | 407 kts | 246° |
| 2026-05-05 23:56 | 19.23034 | -100.01006 | 28583 ft | 409 kts | 246° |
| 2026-05-05 23:57 | 19.22000 | -100.03769 | 29024 ft | 411 kts | 246° |
| 2026-05-05 23:57 | 19.20996 | -100.06442 | 29450 ft | 412 kts | 246° |
| 2026-05-05 23:57 | 19.19939 | -100.09269 | 29885 ft | 413 kts | 248° |
| 2026-05-05 23:57 | 19.19184 | -100.12242 | 30262 ft | 418 kts | 260° |
| 2026-05-05 23:58 | 19.19060 | -100.15319 | 30620 ft | 423 kts | 272° |
| 2026-05-05 23:58 | 19.19564 | -100.18375 | 31047 ft | 425 kts | 284° |
| 2026-05-05 23:58 | 19.20472 | -100.21333 | 31559 ft | 423 kts | 287° |
| 2026-05-05 23:58 | 19.21430 | -100.24270 | 32056 ft | 420 kts | 287° |
| 2026-05-05 23:59 | 19.22380 | -100.27180 | 32514 ft | 418 kts | 287° |
| 2026-05-05 23:59 | 19.23325 | -100.30099 | 32932 ft | 417 kts | 287° |
| 2026-05-05 23:59 | 19.24265 | -100.33025 | 33291 ft | 417 kts | 287° |
| 2026-05-05 23:59 | 19.24654 | -100.34245 | 33422 ft | 418 kts | 287° |
| 2026-05-06 00:00 | 19.25583 | -100.37162 | 33710 ft | 420 kts | 287° |
| 2026-05-06 00:00 | 19.26515 | -100.40093 | 33997 ft | 421 kts | 287° |
| 2026-05-06 00:00 | 19.27422 | -100.42947 | 34236 ft | 423 kts | 287° |
| 2026-05-06 00:00 | 19.28361 | -100.45905 | 34230 ft | 424 kts | 287° |
| 2026-05-06 00:01 | 19.30235 | -100.51818 | 34193 ft | 423 kts | 287° |
| 2026-05-06 00:01 | 19.32045 | -100.57537 | 34204 ft | 422 kts | 287° |
| 2026-05-06 00:02 | 19.33906 | -100.63435 | 34226 ft | 422 kts | 287° |
| 2026-05-06 00:02 | 19.35778 | -100.69373 | 34241 ft | 422 kts | 286° |
| 2026-05-06 00:03 | 19.37700 | -100.75282 | 34266 ft | 422 kts | 288° |
| 2026-05-06 00:03 | 19.39493 | -100.80435 | 34282 ft | 422 kts | 288° |
| 2026-05-06 00:04 | 19.39663 | -100.80925 | 34284 ft | 421 kts | 288° |
| 2026-05-06 00:04 | 19.41195 | -100.85341 | 34261 ft | 421 kts | 288° |
| 2026-05-06 00:05 | 19.44204 | -100.94066 | 34246 ft | 421 kts | 288° |
| 2026-05-06 00:06 | 19.46198 | -100.99866 | 34226 ft | 421 kts | 288° |
| 2026-05-06 00:06 | 19.48189 | -101.05672 | 34243 ft | 421 kts | 288° |
| 2026-05-06 00:07 | 19.50177 | -101.11475 | 34262 ft | 421 kts | 288° |
| 2026-05-06 00:07 | 19.52175 | -101.17312 | 34288 ft | 421 kts | 288° |
| 2026-05-06 00:08 | 19.54162 | -101.23124 | 34322 ft | 421 kts | 288° |
| 2026-05-06 00:08 | 19.56146 | -101.28938 | 34354 ft | 421 kts | 288° |
| 2026-05-06 00:09 | 19.58135 | -101.34772 | 34367 ft | 421 kts | 288° |
| 2026-05-06 00:09 | 19.60116 | -101.40587 | 34367 ft | 421 kts | 288° |
| 2026-05-06 00:09 | 19.61105 | -101.43496 | 34089 ft | 420 kts | 288° |
| 2026-05-06 00:10 | 19.62090 | -101.46391 | 33806 ft | 418 kts | 288° |
| 2026-05-06 00:10 | 19.63069 | -101.49266 | 33523 ft | 414 kts | 288° |
| 2026-05-06 00:10 | 19.64038 | -101.52119 | 33242 ft | 412 kts | 288° |
| 2026-05-06 00:10 | 19.65009 | -101.54980 | 32957 ft | 411 kts | 288° |
| 2026-05-06 00:11 | 19.65974 | -101.57824 | 32694 ft | 412 kts | 288° |
| 2026-05-06 00:11 | 19.66940 | -101.60673 | 32410 ft | 412 kts | 288° |
| 2026-05-06 00:11 | 19.67906 | -101.63528 | 32042 ft | 414 kts | 288° |
| 2026-05-06 00:11 | 19.68880 | -101.66407 | 31524 ft | 415 kts | 287° |
| 2026-05-06 00:12 | 19.69860 | -101.69300 | 30920 ft | 416 kts | 287° |
| 2026-05-06 00:12 | 19.70834 | -101.72180 | 30292 ft | 418 kts | 287° |
| 2026-05-06 00:12 | 19.71814 | -101.75080 | 29782 ft | 415 kts | 287° |
| 2026-05-06 00:12 | 19.72784 | -101.77947 | 29347 ft | 412 kts | 287° |
| 2026-05-06 00:13 | 19.73743 | -101.80783 | 28913 ft | 409 kts | 287° |
| 2026-05-06 00:13 | 19.74693 | -101.83599 | 28477 ft | 406 kts | 287° |
| 2026-05-06 00:13 | 19.75635 | -101.86395 | 28028 ft | 403 kts | 287° |
| 2026-05-06 00:13 | 19.76571 | -101.89176 | 27582 ft | 401 kts | 287° |
| 2026-05-06 00:14 | 19.77502 | -101.91942 | 27140 ft | 399 kts | 287° |
| 2026-05-06 00:14 | 19.78433 | -101.94711 | 26710 ft | 396 kts | 287° |
| 2026-05-06 00:14 | 19.79353 | -101.97442 | 26285 ft | 394 kts | 287° |
| 2026-05-06 00:14 | 19.80267 | -102.00159 | 25859 ft | 392 kts | 287° |
| 2026-05-06 00:15 | 19.81176 | -102.02863 | 25434 ft | 390 kts | 287° |
| 2026-05-06 00:15 | 19.82079 | -102.05554 | 25017 ft | 388 kts | 287° |
| 2026-05-06 00:15 | 19.82979 | -102.08236 | 24601 ft | 387 kts | 287° |
| 2026-05-06 00:15 | 19.83887 | -102.10945 | 24403 ft | 395 kts | 287° |
| 2026-05-06 00:16 | 19.84813 | -102.13714 | 24398 ft | 398 kts | 287° |
| 2026-05-06 00:16 | 19.85739 | -102.16477 | 24392 ft | 399 kts | 287° |
| 2026-05-06 00:16 | 19.86668 | -102.19247 | 24390 ft | 399 kts | 287° |
| 2026-05-06 00:16 | 19.87579 | -102.21964 | 24384 ft | 384 kts | 287° |
| 2026-05-06 00:17 | 19.88454 | -102.24574 | 24389 ft | 368 kts | 287° |
| 2026-05-06 00:17 | 19.89292 | -102.27078 | 24377 ft | 354 kts | 287° |
| 2026-05-06 00:17 | 19.90101 | -102.29500 | 24373 ft | 349 kts | 287° |
| 2026-05-06 00:17 | 19.90931 | -102.31995 | 24381 ft | 366 kts | 287° |
| 2026-05-06 00:18 | 19.91799 | -102.34604 | 24376 ft | 386 kts | 287° |
| 2026-05-06 00:18 | 19.92707 | -102.37328 | 24371 ft | 396 kts | 287° |
| 2026-05-06 00:18 | 19.93629 | -102.40085 | 24349 ft | 397 kts | 287° |
| 2026-05-06 00:18 | 19.94554 | -102.42848 | 23916 ft | 399 kts | 287° |
| 2026-05-06 00:19 | 19.95484 | -102.45635 | 23043 ft | 408 kts | 287° |
| 2026-05-06 00:19 | 19.96429 | -102.48476 | 22271 ft | 412 kts | 287° |
| 2026-05-06 00:19 | 19.97389 | -102.51359 | 21715 ft | 411 kts | 287° |
| 2026-05-06 00:19 | 19.98338 | -102.54216 | 21240 ft | 408 kts | 287° |
| 2026-05-06 00:20 | 19.99282 | -102.57056 | 20786 ft | 404 kts | 287° |
| 2026-05-06 00:20 | 20.00299 | -102.59850 | 20300 ft | 403 kts | 296° |
| 2026-05-06 00:20 | 20.02036 | -102.62173 | 19779 ft | 405 kts | 321° |
| 2026-05-06 00:20 | 20.04423 | -102.63707 | 19358 ft | 400 kts | 334° |
| 2026-05-06 00:21 | 20.06944 | -102.64920 | 18916 ft | 396 kts | 336° |
| 2026-05-06 00:21 | 20.09487 | -102.66141 | 18541 ft | 390 kts | 335° |
| 2026-05-06 00:21 | 20.11930 | -102.67386 | 18210 ft | 383 kts | 333° |
| 2026-05-06 00:21 | 20.14306 | -102.68644 | 17880 ft | 377 kts | 334° |
| 2026-05-06 00:22 | 20.16751 | -102.69508 | 17555 ft | 368 kts | 355° |
| 2026-05-06 00:22 | 20.19239 | -102.69236 | 17248 ft | 356 kts | 22° |
| 2026-05-06 00:22 | 20.21400 | -102.68038 | 16951 ft | 347 kts | 33° |
| 2026-05-06 00:22 | 20.23442 | -102.66723 | 16656 ft | 341 kts | 32° |
| 2026-05-06 00:23 | 20.25523 | -102.65527 | 16360 ft | 335 kts | 26° |
| 2026-05-06 00:23 | 20.27759 | -102.64918 | 15995 ft | 334 kts | 359° |
| 2026-05-06 00:23 | 20.29987 | -102.65465 | 15662 ft | 329 kts | 332° |
| 2026-05-06 00:23 | 20.31790 | -102.66896 | 15343 ft | 322 kts | 309° |
| 2026-05-06 00:24 | 20.32945 | -102.68887 | 15035 ft | 315 kts | 288° |
| 2026-05-06 00:24 | 20.33475 | -102.71113 | 14748 ft | 309 kts | 280° |
| 2026-05-06 00:24 | 20.33891 | -102.73330 | 14468 ft | 304 kts | 281° |
| 2026-05-06 00:24 | 20.34314 | -102.75526 | 14239 ft | 297 kts | 281° |
| 2026-05-06 00:25 | 20.34736 | -102.77627 | 14207 ft | 286 kts | 282° |
| 2026-05-06 00:25 | 20.35161 | -102.79694 | 14211 ft | 286 kts | 282° |
| 2026-05-06 00:25 | 20.35593 | -102.81758 | 14213 ft | 287 kts | 282° |
| 2026-05-06 00:25 | 20.36029 | -102.83821 | 14216 ft | 286 kts | 282° |
| 2026-05-06 00:26 | 20.36465 | -102.85878 | 14187 ft | 284 kts | 282° |
| 2026-05-06 00:26 | 20.36895 | -102.87908 | 13909 ft | 282 kts | 282° |
| 2026-05-06 00:26 | 20.37327 | -102.89953 | 13544 ft | 282 kts | 283° |
| 2026-05-06 00:26 | 20.37754 | -102.91977 | 13225 ft | 280 kts | 283° |
| 2026-05-06 00:27 | 20.38182 | -102.93996 | 12766 ft | 285 kts | 283° |
| 2026-05-06 00:27 | 20.38627 | -102.96072 | 12037 ft | 293 kts | 283° |
| 2026-05-06 00:27 | 20.39078 | -102.98180 | 11314 ft | 295 kts | 282° |
| 2026-05-06 00:27 | 20.39528 | -103.00292 | 10596 ft | 295 kts | 282° |
| 2026-05-06 00:28 | 20.40113 | -103.02363 | 9910 ft | 294 kts | 290° |
| 2026-05-06 00:28 | 20.40908 | -103.04337 | 9433 ft | 283 kts | 292° |
| 2026-05-06 00:28 | 20.41695 | -103.06193 | 9202 ft | 269 kts | 292° |
| 2026-05-06 00:28 | 20.42442 | -103.07948 | 9178 ft | 253 kts | 292° |
| 2026-05-06 00:29 | 20.43152 | -103.09621 | 9177 ft | 247 kts | 292° |
| 2026-05-06 00:29 | 20.43846 | -103.11264 | 9172 ft | 238 kts | 292° |
| 2026-05-06 00:29 | 20.44503 | -103.12817 | 9165 ft | 225 kts | 292° |
| 2026-05-06 00:29 | 20.45144 | -103.14330 | 9170 ft | 224 kts | 292° |
| 2026-05-06 00:30 | 20.45786 | -103.15853 | 9162 ft | 224 kts | 292° |
| 2026-05-06 00:30 | 20.46418 | -103.17360 | 9150 ft | 221 kts | 292° |
| 2026-05-06 00:30 | 20.47020 | -103.18798 | 9206 ft | 207 kts | 292° |
| 2026-05-06 00:30 | 20.47604 | -103.20194 | 9171 ft | 206 kts | 292° |
| 2026-05-06 00:31 | 20.48186 | -103.21586 | 9120 ft | 209 kts | 292° |
| 2026-05-06 00:31 | 20.48805 | -103.23066 | 8746 ft | 228 kts | 292° |
| 2026-05-06 00:31 | 20.49464 | -103.24644 | 8164 ft | 241 kts | 292° |
| 2026-05-06 00:31 | 20.50167 | -103.26318 | 7607 ft | 252 kts | 293° |
| 2026-05-06 00:32 | 20.50867 | -103.27973 | 7592 ft | 235 kts | 293° |
| 2026-05-06 00:32 | 20.51524 | -103.29529 | 7844 ft | 233 kts | 293° |
| 2026-05-06 00:32 | 20.52194 | -103.31111 | 8099 ft | 236 kts | 293° |
| 2026-05-06 00:32 | 20.52874 | -103.32703 | 8352 ft | 238 kts | 293° |
| 2026-05-06 00:33 | 20.53389 | -103.34363 | 8593 ft | 238 kts | 272° |
| 2026-05-06 00:33 | 20.53139 | -103.36088 | 8855 ft | 241 kts | 251° |
| 2026-05-06 00:33 | 20.52493 | -103.37786 | 9115 ft | 249 kts | 246° |
| 2026-05-06 00:33 | 20.51771 | -103.39468 | 9368 ft | 251 kts | 246° |
| 2026-05-06 00:34 | 20.51031 | -103.41162 | 9620 ft | 253 kts | 245° |
| 2026-05-06 00:34 | 20.50291 | -103.42863 | 9869 ft | 254 kts | 245° |
| 2026-05-06 00:34 | 20.49553 | -103.44576 | 10075 ft | 256 kts | 245° |
| 2026-05-06 00:34 | 20.48687 | -103.46219 | 10091 ft | 256 kts | 227° |
| 2026-05-06 00:35 | 20.47244 | -103.47285 | 10104 ft | 255 kts | 198° |
| 2026-05-06 00:35 | 20.45478 | -103.47456 | 10113 ft | 257 kts | 169° |
| 2026-05-06 00:35 | 20.43856 | -103.46684 | 10117 ft | 260 kts | 140° |
| 2026-05-06 00:35 | 20.42774 | -103.45157 | 10137 ft | 263 kts | 114° |
| 2026-05-06 00:36 | 20.42183 | -103.43307 | 10359 ft | 267 kts | 107° |
| 2026-05-06 00:36 | 20.41694 | -103.41401 | 10584 ft | 268 kts | 105° |
| 2026-05-06 00:36 | 20.41223 | -103.39485 | 10809 ft | 268 kts | 105° |
| 2026-05-06 00:36 | 20.40759 | -103.37566 | 11027 ft | 269 kts | 105° |
| 2026-05-06 00:37 | 20.40295 | -103.35626 | 11094 ft | 268 kts | 105° |
| 2026-05-06 00:37 | 20.39836 | -103.33710 | 11098 ft | 267 kts | 105° |
| 2026-05-06 00:37 | 20.39380 | -103.31803 | 11100 ft | 266 kts | 105° |
| 2026-05-06 00:37 | 20.38923 | -103.29909 | 11102 ft | 264 kts | 105° |
| 2026-05-06 00:38 | 20.38460 | -103.28023 | 11108 ft | 264 kts | 105° |
| 2026-05-06 00:38 | 20.37996 | -103.26135 | 11112 ft | 264 kts | 105° |
| 2026-05-06 00:38 | 20.37534 | -103.24241 | 11044 ft | 267 kts | 105° |
| 2026-05-06 00:38 | 20.37065 | -103.22334 | 10770 ft | 264 kts | 105° |
| 2026-05-06 00:39 | 20.36605 | -103.20456 | 10500 ft | 262 kts | 105° |
| 2026-05-06 00:39 | 20.36151 | -103.18593 | 10231 ft | 260 kts | 105° |
| 2026-05-06 00:39 | 20.35704 | -103.16743 | 9961 ft | 258 kts | 105° |
| 2026-05-06 00:39 | 20.35263 | -103.14907 | 9691 ft | 256 kts | 104° |
| 2026-05-06 00:40 | 20.35055 | -103.13041 | 9410 ft | 255 kts | 90° |
| 2026-05-06 00:40 | 20.35146 | -103.11171 | 9142 ft | 253 kts | 86° |
| 2026-05-06 00:40 | 20.35299 | -103.09306 | 8867 ft | 251 kts | 85° |
| 2026-05-06 00:40 | 20.35457 | -103.07471 | 8593 ft | 249 kts | 85° |
| 2026-05-06 00:41 | 20.35613 | -103.05650 | 8293 ft | 248 kts | 85° |
| 2026-05-06 00:41 | 20.35854 | -103.03842 | 7983 ft | 247 kts | 70° |
| 2026-05-06 00:41 | 20.36766 | -103.02368 | 7907 ft | 237 kts | 37° |
| 2026-05-06 00:41 | 20.38235 | -103.01646 | 7910 ft | 229 kts | 4° |
| 2026-05-06 00:42 | 20.39715 | -103.01861 | 7945 ft | 208 kts | 330° |
| 2026-05-06 00:42 | 20.40741 | -103.02899 | 7956 ft | 202 kts | 296° |
| 2026-05-06 00:42 | 20.41244 | -103.04283 | 7940 ft | 201 kts | 288° |
| 2026-05-06 00:42 | 20.41695 | -103.05682 | 7912 ft | 200 kts | 288° |
| 2026-05-06 00:43 | 20.42181 | -103.07064 | 7891 ft | 200 kts | 290° |
| 2026-05-06 00:43 | 20.42699 | -103.08429 | 7877 ft | 199 kts | 291° |
| 2026-05-06 00:43 | 20.43240 | -103.09787 | 7882 ft | 200 kts | 292° |
| 2026-05-06 00:43 | 20.43794 | -103.11140 | 7877 ft | 200 kts | 292° |
| 2026-05-06 00:44 | 20.44354 | -103.12483 | 7857 ft | 191 kts | 293° |
| 2026-05-06 00:44 | 20.44876 | -103.13726 | 7733 ft | 179 kts | 293° |
| 2026-05-06 00:44 | 20.45364 | -103.14884 | 7548 ft | 164 kts | 293° |
| 2026-05-06 00:44 | 20.45809 | -103.15942 | 7337 ft | 153 kts | 293° |
| 2026-05-06 00:45 | 20.46241 | -103.16968 | 7164 ft | 152 kts | 293° |
| 2026-05-06 00:45 | 20.46670 | -103.17990 | 7000 ft | 151 kts | 293° |
| 2026-05-06 00:45 | 20.47100 | -103.19014 | 6832 ft | 151 kts | 294° |
| 2026-05-06 00:45 | 20.47531 | -103.20040 | 6664 ft | 151 kts | 294° |
| 2026-05-06 00:46 | 20.47958 | -103.21056 | 6494 ft | 150 kts | 294° |
| 2026-05-06 00:46 | 20.48384 | -103.22070 | 6324 ft | 150 kts | 294° |
| 2026-05-06 00:46 | 20.48808 | -103.23080 | 6149 ft | 150 kts | 294° |
| 2026-05-06 00:46 | 20.49231 | -103.24086 | 5977 ft | 149 kts | 294° |
| 2026-05-06 00:47 | 20.49653 | -103.25092 | 5804 ft | 149 kts | 294° |
| 2026-05-06 00:47 | 20.50074 | -103.26095 | 5634 ft | 148 kts | 294° |
| 2026-05-06 00:47 | 20.50497 | -103.27103 | 5466 ft | 148 kts | 294° |
| 2026-05-06 00:47 | 20.50906 | -103.28102 | 5308 ft | 147 kts | 294° |
| 2026-05-06 00:48 | 20.51322 | -103.29078 | 5138 ft | 144 kts | 295° |
| 2026-05-06 00:48 | 20.51723 | -103.30013 | 5060 ft | 127 kts | 295° |
| 2026-05-06 00:48 | 20.52005 | -103.30674 | 5062 ft | 45 kts | 296° |
| 2026-05-06 00:48 | 20.52168 | -103.30860 | 5063 ft | 33 kts | 328° |
| 2026-05-06 00:49 | 20.52251 | -103.30925 | 5063 ft | 0 kts | 322° |
| 2026-05-06 00:50 | 20.52258 | -103.30931 | 5063 ft | 6 kts | 322° |
| 2026-05-06 00:50 | 20.52308 | -103.30969 | 5063 ft | 13 kts | 330° |
| 2026-05-06 00:51 | 20.52416 | -103.30960 | 5062 ft | 10 kts | 52° |
| 2026-05-06 00:51 | 20.52433 | -103.30924 | 5062 ft | 0 kts | 71° |
| 2026-05-06 00:51 | 20.52435 | -103.30920 | 5062 ft | 2 kts | 71° |
| 2026-05-06 00:52 | 20.52444 | -103.30892 | 5062 ft | 7 kts | 70° |
| 2026-05-06 00:52 | 20.52470 | -103.30818 | 5061 ft | 14 kts | 68° |
| 2026-05-06 00:52 | 20.52506 | -103.30718 | 5061 ft | 15 kts | 72° |
| 2026-05-06 00:52 | 20.52532 | -103.30626 | 5060 ft | 9 kts | 84° |
| 2026-05-06 00:53 | 20.52534 | -103.30584 | 5059 ft | 5 kts | 75° |
| 2026-05-06 00:53 | 20.52547 | -103.30547 | 5059 ft | 6 kts | 66° |
| 2026-05-06 00:53 | 20.52556 | -103.30526 | 5059 ft | 0 kts | 67° |